D/T METAR WX W/DIR W/SPE G/SPE TEMP DEWP
19/06/19 15:50 EGWC 191450Z 32002KT 9999 SCT030 18/11 Q1008 RMK BLU NW (320°) 2.3mph 18°C 11°C
19/06/19 14:50 EGWC 191350Z 33005KT 9999 SCT030 18/10 Q1009 RMK BLU NNW (330°) 5.8mph 18°C 10°C
19/06/19 13:50 EGWC 191250Z 30006KT 9999 SCT027 BKN090 18/10 Q1009 RMK BLU WNW (300°) 6.9mph 18°C 10°C
19/06/19 12:50 EGWC 191150Z 30005KT 9999 SCT030 17/10 Q1009 RMK BLU WNW (300°) 5.8mph 17°C 10°C
19/06/19 11:50 EGWC 191050Z 33003KT 9999 SCT030 15/11 Q1008 RMK BLU NNW (330°) 3.5mph 15°C 11°C
19/06/19 10:50 EGWC 190950Z 33003KT 9999 FEW010 SCT035 BKN060 16/11 Q1009 RMK BLU NNW (330°) 3.5mph 16°C 11°C
19/06/19 09:50 EGWC 190850Z 31005KT 9999 FEW010 BKN015 14/11 Q1009 WHT NW (310°) 5.8mph 14°C 11°C
19/06/19 08:50 EGWC 190750Z 33006KT 9999 FEW010 BKN014 14/11 Q1009 GRN NNW (330°) 6.9mph 14°C 11°C
18/06/19 16:50 EGWC 181550Z 18006KT 9999 -RA FEW030 BKN100 18/12 Q1012 RMK BLU -RA S (180°) 6.9mph 18°C 12°C
18/06/19 15:50 EGWC 181450Z 18006KT 9999 FEW028 BKN160 18/12 Q1013 RMK BLU S (180°) 6.9mph 18°C 12°C
18/06/19 14:50 EGWC 181350Z 17005KT 9999 FEW028 BKN160 18/12 Q1013 RMK BLU S (170°) 5.8mph 18°C 12°C
18/06/19 13:50 EGWC 181250Z 16006KT 9999 SCT025 17/12 Q1013 RMK BLU SSE (160°) 6.9mph 17°C 12°C
18/06/19 12:50 EGWC 181150Z 19006KT 9999 FEW017 SCT020 BKN050 17/12 Q1014 WHT S (190°) 6.9mph 17°C 12°C
18/06/19 11:50 EGWC 181050Z 17004KT 9999 FEW015 SCT023 BKN040 16/11 Q1014 WHT S (170°) 4.6mph 16°C 11°C
18/06/19 10:50 EGWC 180950Z 19006KT 9999 SCT020 17/12 Q1014 WHT S (190°) 6.9mph 17°C 12°C
18/06/19 09:50 EGWC 180850Z 15004KT 9999 FEW020 SCT040 16/11 Q1014 BLU SSE (150°) 4.6mph 16°C 11°C
18/06/19 08:50 EGWC 180750Z 18004KT 9999 SCT040 14/09 Q1015 RMK BLU S (180°) 4.6mph 14°C 9°C
17/06/19 16:50 EGWC 171550Z 19011KT 9999 BKN025 18/12 Q1014 RMK BLU S (190°) 12.7mph 18°C 12°C
17/06/19 15:50 EGWC 171450Z 21012KT 9999 BKN022 18/12 Q1015 RMK WHT SSW (210°) 13.8mph 18°C 12°C
17/06/19 14:50 EGWC 171350Z 20014KT 9999 BKN020 18/12 Q1015 WHT SSW (200°) 16.1mph 18°C 12°C
17/06/19 13:50 EGWC 171250Z 20017KT 9999 -SHRA FEW015 BKN020 17/12 Q1015 WHT -SHRA SSW (200°) 19.6mph 17°C 12°C
17/06/19 12:50 EGWC 171150Z 20017KT 9999 SHRA SCT013 BKN018 18/13 Q1015 GRN SHRA SSW (200°) 19.6mph 18°C 13°C
17/06/19 11:50 EGWC 171050Z 21011G21KT 9999 VCSH FEW010 SCT015 18/12 Q1015 WHT VCSH SSW (210°) 12.7mph 24.2mph 18°C 12°C
17/06/19 10:50 EGWC 170950Z 20011KT 9999 VCSH FEW013 BKN020 17/12 Q1015 WHT VCSH SSW (200°) 12.7mph 17°C 12°C
17/06/19 09:50 EGWC 170850Z 19016KT 9999 BKN013 15/11 Q1015 GRN S (190°) 18.4mph 15°C 11°C
17/06/19 08:50 EGWC 170750Z 20014KT 9999 FEW010 BKN013 15/11 Q1015 GRN SSW (200°) 16.1mph 15°C 11°C
16/06/19 16:50 EGWC 161550Z 22016G26KT 9999 SCT030 SCT042 18/09 Q1014 RMK BLU SW (220°) 18.4mph 29.9mph 18°C 9°C
16/06/19 15:50 EGWC 161450Z 23013KT 9999 SCT030 18/13 Q1014 BLU SW (230°) 15.0mph 18°C 13°C
16/06/19 14:50 EGWC 161350Z 22015G26KT 9999 SCT028 18/13 Q1013 RMK BLU SW (220°) 17.3mph 29.9mph 18°C 13°C
16/06/19 13:50 EGWC 161250Z 22013G24KT 9999 FEW018 SCT028 BKN200 17/13 Q1013 BLU SW (220°) 15.0mph 27.6mph 17°C 13°C
16/06/19 12:50 EGWC 161150Z 21009KT 9999 SCT018 SCT028 17/12 Q1013 WHT SSW (210°) 10.4mph 17°C 12°C
16/06/19 11:50 EGWC 161050Z 21006KT 9999 VCSH FEW015 SCT018 BKN045 15/13 Q1013 WHT VCSH SSW (210°) 6.9mph 15°C 13°C
16/06/19 10:50 EGWC 160950Z 20009KT 9999 SCT018 BKN045 15/11 Q1013 WHT SSW (200°) 10.4mph 15°C 11°C
15/06/19 15:50 EGWC 151450Z 16007KT 9999 SCT020 BKN045 16/11 Q1010 RMK BLU SSE (160°) 8.1mph 16°C 11°C
15/06/19 14:50 EGWC 151350Z 18007KT 9999 FEW012 BKN042 15/11 Q1010 RMK BLU S (180°) 8.1mph 15°C 11°C
15/06/19 13:50 EGWC 151250Z 19007KT 9999 7000E -SHRA FEW006 BKN018 BKN030 14/12 Q1010 RMK WHT -SHRA S (190°) 8.1mph 14°C 12°C
15/06/19 12:50 EGWC 151150Z 19014KT 9999 2500S SHRA FEW012 BKN020 OVC030 14/12 Q1010 YLO1 SHRA S (190°) 16.1mph 14°C 12°C
15/06/19 11:50 EGWC 151050Z 17010G20KT 9999 SCT018 BKN020 15/11 Q1010 WHT S (170°) 11.5mph 23.0mph 15°C 11°C
15/06/19 10:50 EGWC 150950Z 18011KT 9999 BKN018 14/11 Q1010 WHT S (180°) 12.7mph 14°C 11°C
15/06/19 09:50 EGWC 150850Z 17011G21KT 9999 BKN014 14/11 Q1009 GRN S (170°) 12.7mph 24.2mph 14°C 11°C
15/06/19 09:20 EGWC 150820Z 17015KT 9999 BKN014 14/11 Q1009 RMK GRN S (170°) 17.3mph 14°C 11°C
12/06/19 12:50 EGWC 121150Z 34008KT 9999 BKN008 12/10 Q1011 RMK GRN NNW (340°) 9.2mph 12°C 10°C
12/06/19 11:50 EGWC 121050Z 32007KT 8000 BR BKN007 12/10 Q1011 RMK GRN BR NW (320°) 8.1mph 12°C 10°C
12/06/19 10:50 EGWC 120950Z 33007KT 8000 -RA OVC007 10/09 Q1011 RMK GRN -RA NNW (330°) 8.1mph 10°C 9°C
12/06/19 09:50 EGWC 120850Z 33007KT 6000 -RA OVC006 10/09 Q1011 RMK YLO1 -RA NNW (330°) 8.1mph 10°C 9°C
12/06/19 08:50 EGWC 120750Z 33009KT 4000 -RA OVC006 09/08 Q1012 RMK YLO1 -RA NNW (330°) 10.4mph 9°C 8°C
12/06/19 07:50 EGWC 120650Z 33008KT 8000 -RA FEW005 BKN006 09/08 Q1012 RMK YLO1 -RA NNW (330°) 9.2mph 9°C 8°C
11/06/19 08:50 EGWC 110750Z 36010KT 9999 -RA BKN011 OVC030 10/09 Q1016 RMK GRN -RA N (360°) 11.5mph 10°C 9°C